sensor_id;sensor_type;location;lat;lon;timestamp;P1;durP1;ratioP1;P2;durP2;ratioP2
14342;SDS011;7255;53.596;9.960;2024-01-06T00:01:22;5.35;;;4.50;;
14342;SDS011;7255;53.596;9.960;2024-01-06T00:03:48;6.03;;;4.90;;
14342;SDS011;7255;53.596;9.960;2024-01-06T00:06:14;5.72;;;5.00;;
14342;SDS011;7255;53.596;9.960;2024-01-06T00:08:40;7.03;;;5.03;;
14342;SDS011;7255;53.596;9.960;2024-01-06T00:11:07;4.93;;;4.43;;
14342;SDS011;7255;53.596;9.960;2024-01-06T00:13:33;6.60;;;4.90;;
14342;SDS011;7255;53.596;9.960;2024-01-06T00:16:01;4.87;;;4.25;;
14342;SDS011;7255;53.596;9.960;2024-01-06T00:18:28;5.03;;;4.55;;
14342;SDS011;7255;53.596;9.960;2024-01-06T00:20:54;6.68;;;4.95;;
14342;SDS011;7255;53.596;9.960;2024-01-06T00:23:21;5.20;;;4.60;;
14342;SDS011;7255;53.596;9.960;2024-01-06T00:25:47;6.18;;;4.90;;
14342;SDS011;7255;53.596;9.960;2024-01-06T00:28:13;5.55;;;4.60;;
14342;SDS011;7255;53.596;9.960;2024-01-06T00:30:39;5.65;;;4.53;;
14342;SDS011;7255;53.596;9.960;2024-01-06T00:33:07;6.57;;;4.65;;
14342;SDS011;7255;53.596;9.960;2024-01-06T00:35:33;5.72;;;5.12;;
14342;SDS011;7255;53.596;9.960;2024-01-06T00:37:59;5.43;;;4.93;;
14342;SDS011;7255;53.596;9.960;2024-01-06T00:40:26;6.70;;;4.73;;
14342;SDS011;7255;53.596;9.960;2024-01-06T00:42:52;5.90;;;4.53;;
14342;SDS011;7255;53.596;9.960;2024-01-06T00:45:18;5.60;;;5.03;;
14342;SDS011;7255;53.596;9.960;2024-01-06T00:47:44;5.20;;;4.70;;
14342;SDS011;7255;53.596;9.960;2024-01-06T00:50:12;6.55;;;4.93;;
14342;SDS011;7255;53.596;9.960;2024-01-06T00:52:38;5.20;;;4.50;;
14342;SDS011;7255;53.596;9.960;2024-01-06T00:55:05;5.65;;;5.03;;
14342;SDS011;7255;53.596;9.960;2024-01-06T00:57:31;5.00;;;4.43;;
14342;SDS011;7255;53.596;9.960;2024-01-06T00:59:57;5.30;;;4.57;;
14342;SDS011;7255;53.596;9.960;2024-01-06T01:02:23;5.20;;;4.70;;
14342;SDS011;7255;53.596;9.960;2024-01-06T01:04:50;5.12;;;4.60;;
14342;SDS011;7255;53.596;9.960;2024-01-06T01:07:18;5.63;;;4.90;;
14342;SDS011;7255;53.596;9.960;2024-01-06T01:09:45;5.03;;;4.30;;
14342;SDS011;7255;53.596;9.960;2024-01-06T01:12:11;4.80;;;4.30;;
14342;SDS011;7255;53.596;9.960;2024-01-06T01:14:37;6.18;;;5.05;;
14342;SDS011;7255;53.596;9.960;2024-01-06T01:17:03;5.47;;;4.97;;
14342;SDS011;7255;53.596;9.960;2024-01-06T01:19:30;5.33;;;4.83;;
14342;SDS011;7255;53.596;9.960;2024-01-06T01:21:56;6.68;;;4.93;;
14342;SDS011;7255;53.596;9.960;2024-01-06T01:24:24;6.32;;;5.10;;
14342;SDS011;7255;53.596;9.960;2024-01-06T01:26:50;5.37;;;4.87;;
14342;SDS011;7255;53.596;9.960;2024-01-06T01:29:16;6.40;;;5.55;;
14342;SDS011;7255;53.596;9.960;2024-01-06T01:31:45;7.57;;;5.95;;
14342;SDS011;7255;53.596;9.960;2024-01-06T01:34:11;5.47;;;4.97;;
14342;SDS011;7255;53.596;9.960;2024-01-06T01:36:37;5.43;;;4.60;;
14342;SDS011;7255;53.596;9.960;2024-01-06T01:39:03;6.25;;;5.18;;
14342;SDS011;7255;53.596;9.960;2024-01-06T01:41:31;6.62;;;5.12;;
14342;SDS011;7255;53.596;9.960;2024-01-06T01:43:57;5.87;;;5.30;;
14342;SDS011;7255;53.596;9.960;2024-01-06T01:46:24;5.60;;;4.60;;
14342;SDS011;7255;53.596;9.960;2024-01-06T01:48:50;5.65;;;5.10;;
14342;SDS011;7255;53.596;9.960;2024-01-06T01:51:17;6.20;;;5.55;;
14342;SDS011;7255;53.596;9.960;2024-01-06T01:53:44;7.28;;;5.00;;
14342;SDS011;7255;53.596;9.960;2024-01-06T01:56:10;6.40;;;5.50;;
14342;SDS011;7255;53.596;9.960;2024-01-06T01:58:38;6.40;;;5.30;;
14342;SDS011;7255;53.596;9.960;2024-01-06T02:01:05;5.95;;;5.12;;
14342;SDS011;7255;53.596;9.960;2024-01-06T02:03:32;6.50;;;5.27;;
14342;SDS011;7255;53.596;9.960;2024-01-06T02:05:59;6.47;;;5.30;;
14342;SDS011;7255;53.596;9.960;2024-01-06T02:08:25;5.53;;;4.75;;
14342;SDS011;7255;53.596;9.960;2024-01-06T02:10:52;6.03;;;5.18;;
14342;SDS011;7255;53.596;9.960;2024-01-06T02:13:19;6.95;;;5.20;;
14342;SDS011;7255;53.596;9.960;2024-01-06T02:15:46;6.57;;;5.28;;
14342;SDS011;7255;53.596;9.960;2024-01-06T02:18:12;6.68;;;5.43;;
14342;SDS011;7255;53.596;9.960;2024-01-06T02:20:38;5.85;;;5.20;;
14342;SDS011;7255;53.596;9.960;2024-01-06T02:23:06;6.30;;;5.55;;
14342;SDS011;7255;53.596;9.960;2024-01-06T02:25:32;6.17;;;5.27;;
14342;SDS011;7255;53.596;9.960;2024-01-06T02:28:00;5.43;;;4.93;;
14342;SDS011;7255;53.596;9.960;2024-01-06T02:30:26;6.60;;;5.30;;
14342;SDS011;7255;53.596;9.960;2024-01-06T02:32:52;6.53;;;5.10;;
14342;SDS011;7255;53.596;9.960;2024-01-06T02:35:19;5.65;;;4.80;;
14342;SDS011;7255;53.596;9.960;2024-01-06T02:37:45;5.78;;;4.95;;
14342;SDS011;7255;53.596;9.960;2024-01-06T02:40:13;6.50;;;5.35;;
14342;SDS011;7255;53.596;9.960;2024-01-06T02:42:39;6.22;;;5.55;;
14342;SDS011;7255;53.596;9.960;2024-01-06T02:45:06;7.07;;;5.93;;
14342;SDS011;7255;53.596;9.960;2024-01-06T02:47:33;5.97;;;5.03;;
14342;SDS011;7255;53.596;9.960;2024-01-06T02:49:59;6.40;;;5.60;;
14342;SDS011;7255;53.596;9.960;2024-01-06T02:52:25;6.72;;;5.55;;
14342;SDS011;7255;53.596;9.960;2024-01-06T02:54:52;8.07;;;6.22;;
14342;SDS011;7255;53.596;9.960;2024-01-06T02:57:19;7.40;;;5.80;;
14342;SDS011;7255;53.596;9.960;2024-01-06T02:59:45;8.38;;;6.45;;
14342;SDS011;7255;53.596;9.960;2024-01-06T03:02:11;6.73;;;6.03;;
14342;SDS011;7255;53.596;9.960;2024-01-06T03:04:38;7.10;;;6.03;;
14342;SDS011;7255;53.596;9.960;2024-01-06T03:07:04;7.47;;;6.57;;
14342;SDS011;7255;53.596;9.960;2024-01-06T03:09:30;7.32;;;6.32;;
14342;SDS011;7255;53.596;9.960;2024-01-06T03:11:57;7.90;;;6.30;;
14342;SDS011;7255;53.596;9.960;2024-01-06T03:14:24;8.02;;;5.78;;
14342;SDS011;7255;53.596;9.960;2024-01-06T03:16:50;6.90;;;6.15;;
14342;SDS011;7255;53.596;9.960;2024-01-06T03:19:16;8.88;;;6.90;;
14342;SDS011;7255;53.596;9.960;2024-01-06T03:21:43;8.75;;;6.62;;
14342;SDS011;7255;53.596;9.960;2024-01-06T03:24:09;7.77;;;6.50;;
14342;SDS011;7255;53.596;9.960;2024-01-06T03:26:35;8.27;;;6.00;;
14342;SDS011;7255;53.596;9.960;2024-01-06T03:29:01;6.72;;;6.03;;
14342;SDS011;7255;53.596;9.960;2024-01-06T03:31:30;8.80;;;6.62;;
14342;SDS011;7255;53.596;9.960;2024-01-06T03:33:56;8.13;;;6.30;;
14342;SDS011;7255;53.596;9.960;2024-01-06T03:36:22;7.40;;;6.18;;
14342;SDS011;7255;53.596;9.960;2024-01-06T03:38:48;7.12;;;6.12;;
14342;SDS011;7255;53.596;9.960;2024-01-06T03:41:15;7.87;;;6.20;;
14342;SDS011;7255;53.596;9.960;2024-01-06T03:43:41;7.43;;;6.40;;
14342;SDS011;7255;53.596;9.960;2024-01-06T03:46:07;7.60;;;6.60;;
14342;SDS011;7255;53.596;9.960;2024-01-06T03:48:35;7.82;;;6.57;;
14342;SDS011;7255;53.596;9.960;2024-01-06T03:51:02;8.90;;;6.50;;
14342;SDS011;7255;53.596;9.960;2024-01-06T03:53:28;7.90;;;6.45;;
14342;SDS011;7255;53.596;9.960;2024-01-06T03:55:54;9.20;;;6.82;;
14342;SDS011;7255;53.596;9.960;2024-01-06T03:58:20;7.37;;;6.22;;
14342;SDS011;7255;53.596;9.960;2024-01-06T04:00:47;8.32;;;6.25;;
14342;SDS011;7255;53.596;9.960;2024-01-06T04:03:13;8.65;;;7.05;;
14342;SDS011;7255;53.596;9.960;2024-01-06T04:05:40;7.90;;;6.40;;
14342;SDS011;7255;53.596;9.960;2024-01-06T04:08:07;7.17;;;6.13;;
14342;SDS011;7255;53.596;9.960;2024-01-06T04:10:33;8.27;;;6.60;;
14342;SDS011;7255;53.596;9.960;2024-01-06T04:12:59;7.37;;;6.28;;
14342;SDS011;7255;53.596;9.960;2024-01-06T04:15:25;8.77;;;6.03;;
14342;SDS011;7255;53.596;9.960;2024-01-06T04:17:52;7.57;;;6.30;;
14342;SDS011;7255;53.596;9.960;2024-01-06T04:20:18;8.05;;;6.25;;
14342;SDS011;7255;53.596;9.960;2024-01-06T04:22:45;8.20;;;6.77;;
14342;SDS011;7255;53.596;9.960;2024-01-06T04:25:12;7.57;;;6.87;;
14342;SDS011;7255;53.596;9.960;2024-01-06T04:27:38;7.60;;;6.23;;
14342;SDS011;7255;53.596;9.960;2024-01-06T04:30:05;7.07;;;5.90;;
14342;SDS011;7255;53.596;9.960;2024-01-06T04:32:31;9.05;;;6.12;;
14342;SDS011;7255;53.596;9.960;2024-01-06T04:34:57;7.32;;;5.93;;
14342;SDS011;7255;53.596;9.960;2024-01-06T04:37:24;9.38;;;6.57;;
14342;SDS011;7255;53.596;9.960;2024-01-06T04:39:51;7.82;;;6.05;;
14342;SDS011;7255;53.596;9.960;2024-01-06T04:42:17;6.30;;;5.65;;
14342;SDS011;7255;53.596;9.960;2024-01-06T04:44:44;9.05;;;6.20;;
14342;SDS011;7255;53.596;9.960;2024-01-06T04:47:11;8.23;;;6.40;;
14342;SDS011;7255;53.596;9.960;2024-01-06T04:49:37;8.23;;;7.03;;
14342;SDS011;7255;53.596;9.960;2024-01-06T04:52:03;9.43;;;6.78;;
14342;SDS011;7255;53.596;9.960;2024-01-06T04:54:29;7.62;;;6.53;;
14342;SDS011;7255;53.596;9.960;2024-01-06T04:56:57;9.27;;;6.87;;
14342;SDS011;7255;53.596;9.960;2024-01-06T04:59:23;8.23;;;6.20;;
14342;SDS011;7255;53.596;9.960;2024-01-06T05:01:50;7.03;;;6.12;;
14342;SDS011;7255;53.596;9.960;2024-01-06T05:04:17;8.07;;;6.90;;
14342;SDS011;7255;53.596;9.960;2024-01-06T05:06:43;8.70;;;6.25;;
14342;SDS011;7255;53.596;9.960;2024-01-06T05:09:09;6.85;;;5.80;;
14342;SDS011;7255;53.596;9.960;2024-01-06T05:11:36;8.13;;;6.62;;
14342;SDS011;7255;53.596;9.960;2024-01-06T05:14:03;7.32;;;6.05;;
14342;SDS011;7255;53.596;9.960;2024-01-06T05:16:29;8.55;;;6.35;;
14342;SDS011;7255;53.596;9.960;2024-01-06T05:18:56;8.18;;;6.50;;
14342;SDS011;7255;53.596;9.960;2024-01-06T05:21:22;9.35;;;6.93;;
14342;SDS011;7255;53.596;9.960;2024-01-06T05:23:48;9.80;;;6.60;;
14342;SDS011;7255;53.596;9.960;2024-01-06T05:26:14;8.45;;;6.60;;
14342;SDS011;7255;53.596;9.960;2024-01-06T05:28:40;8.95;;;6.65;;
14342;SDS011;7255;53.596;9.960;2024-01-06T05:31:08;7.80;;;6.40;;
14342;SDS011;7255;53.596;9.960;2024-01-06T05:33:34;9.55;;;7.12;;
14342;SDS011;7255;53.596;9.960;2024-01-06T05:36:01;8.05;;;6.87;;
14342;SDS011;7255;53.596;9.960;2024-01-06T05:38:28;9.30;;;7.05;;
14342;SDS011;7255;53.596;9.960;2024-01-06T05:40:54;8.00;;;6.40;;
14342;SDS011;7255;53.596;9.960;2024-01-06T05:43:20;8.65;;;6.62;;
14342;SDS011;7255;53.596;9.960;2024-01-06T05:45:46;7.68;;;6.82;;
14342;SDS011;7255;53.596;9.960;2024-01-06T05:48:14;8.25;;;7.07;;
14342;SDS011;7255;53.596;9.960;2024-01-06T05:50:40;9.80;;;7.50;;
14342;SDS011;7255;53.596;9.960;2024-01-06T05:53:06;8.27;;;6.70;;
14342;SDS011;7255;53.596;9.960;2024-01-06T05:55:33;8.80;;;7.15;;
14342;SDS011;7255;53.596;9.960;2024-01-06T05:57:59;8.65;;;7.47;;
14342;SDS011;7255;53.596;9.960;2024-01-06T06:00:26;9.57;;;6.53;;
14342;SDS011;7255;53.596;9.960;2024-01-06T06:02:52;8.23;;;6.93;;
14342;SDS011;7255;53.596;9.960;2024-01-06T06:05:20;9.07;;;7.12;;
14342;SDS011;7255;53.596;9.960;2024-01-06T06:07:46;8.27;;;6.55;;
14342;SDS011;7255;53.596;9.960;2024-01-06T06:10:12;8.27;;;6.80;;
14342;SDS011;7255;53.596;9.960;2024-01-06T06:12:41;7.62;;;6.62;;
14342;SDS011;7255;53.596;9.960;2024-01-06T06:15:07;9.60;;;7.37;;
14342;SDS011;7255;53.596;9.960;2024-01-06T06:17:34;9.15;;;6.95;;
14342;SDS011;7255;53.596;9.960;2024-01-06T06:20:00;8.50;;;7.20;;
14342;SDS011;7255;53.596;9.960;2024-01-06T06:22:27;9.15;;;7.20;;
14342;SDS011;7255;53.596;9.960;2024-01-06T06:24:55;10.10;;;7.30;;
14342;SDS011;7255;53.596;9.960;2024-01-06T06:27:21;9.63;;;6.70;;
14342;SDS011;7255;53.596;9.960;2024-01-06T06:29:47;9.93;;;7.28;;
14342;SDS011;7255;53.596;9.960;2024-01-06T06:32:13;9.20;;;8.00;;
14342;SDS011;7255;53.596;9.960;2024-01-06T06:34:40;10.13;;;7.22;;
14342;SDS011;7255;53.596;9.960;2024-01-06T06:37:06;8.70;;;7.43;;
14342;SDS011;7255;53.596;9.960;2024-01-06T06:39:34;9.40;;;7.78;;
14342;SDS011;7255;53.596;9.960;2024-01-06T06:42:00;9.23;;;7.05;;
14342;SDS011;7255;53.596;9.960;2024-01-06T06:44:26;10.30;;;7.93;;
14342;SDS011;7255;53.596;9.960;2024-01-06T06:46:52;9.48;;;7.07;;
14342;SDS011;7255;53.596;9.960;2024-01-06T06:49:19;9.85;;;7.70;;
14342;SDS011;7255;53.596;9.960;2024-01-06T06:51:45;10.48;;;8.57;;
14342;SDS011;7255;53.596;9.960;2024-01-06T06:54:13;10.30;;;7.90;;
14342;SDS011;7255;53.596;9.960;2024-01-06T06:56:41;9.45;;;7.65;;
14342;SDS011;7255;53.596;9.960;2024-01-06T06:59:08;10.63;;;7.70;;
14342;SDS011;7255;53.596;9.960;2024-01-06T07:01:34;10.48;;;7.95;;
14342;SDS011;7255;53.596;9.960;2024-01-06T07:04:01;9.00;;;7.20;;
14342;SDS011;7255;53.596;9.960;2024-01-06T07:06:27;10.80;;;8.13;;
14342;SDS011;7255;53.596;9.960;2024-01-06T07:08:53;9.02;;;7.25;;
14342;SDS011;7255;53.596;9.960;2024-01-06T07:11:19;11.00;;;8.43;;
14342;SDS011;7255;53.596;9.960;2024-01-06T07:13:47;9.80;;;7.75;;
14342;SDS011;7255;53.596;9.960;2024-01-06T07:16:14;11.15;;;7.93;;
14342;SDS011;7255;53.596;9.960;2024-01-06T07:18:40;9.52;;;7.65;;
14342;SDS011;7255;53.596;9.960;2024-01-06T07:21:06;11.45;;;8.27;;
14342;SDS011;7255;53.596;9.960;2024-01-06T07:23:33;11.82;;;7.82;;
14342;SDS011;7255;53.596;9.960;2024-01-06T07:25:59;9.30;;;8.07;;
14342;SDS011;7255;53.596;9.960;2024-01-06T07:28:25;10.63;;;8.40;;
14342;SDS011;7255;53.596;9.960;2024-01-06T07:30:53;11.15;;;7.95;;
14342;SDS011;7255;53.596;9.960;2024-01-06T07:33:19;10.38;;;7.50;;
14342;SDS011;7255;53.596;9.960;2024-01-06T07:35:46;9.27;;;7.60;;
14342;SDS011;7255;53.596;9.960;2024-01-06T07:38:12;9.10;;;7.40;;
14342;SDS011;7255;53.596;9.960;2024-01-06T07:40:38;9.35;;;7.93;;
14342;SDS011;7255;53.596;9.960;2024-01-06T07:43:05;11.30;;;8.02;;
14342;SDS011;7255;53.596;9.960;2024-01-06T07:45:31;9.65;;;8.02;;
14342;SDS011;7255;53.596;9.960;2024-01-06T07:47:59;8.63;;;7.35;;
14342;SDS011;7255;53.596;9.960;2024-01-06T07:50:25;10.27;;;7.62;;
14342;SDS011;7255;53.596;9.960;2024-01-06T07:52:51;8.90;;;7.20;;
14342;SDS011;7255;53.596;9.960;2024-01-06T07:55:18;10.60;;;7.78;;
14342;SDS011;7255;53.596;9.960;2024-01-06T07:57:44;10.38;;;7.50;;
14342;SDS011;7255;53.596;9.960;2024-01-06T08:00:11;12.10;;;7.97;;
14342;SDS011;7255;53.596;9.960;2024-01-06T08:02:39;9.02;;;7.57;;
14342;SDS011;7255;53.596;9.960;2024-01-06T08:05:07;9.17;;;7.60;;
14342;SDS011;7255;53.596;9.960;2024-01-06T08:07:33;11.00;;;7.95;;
14342;SDS011;7255;53.596;9.960;2024-01-06T08:09:59;9.17;;;7.33;;
14342;SDS011;7255;53.596;9.960;2024-01-06T08:12:26;8.95;;;7.12;;
14342;SDS011;7255;53.596;9.960;2024-01-06T08:14:52;8.82;;;7.22;;
14342;SDS011;7255;53.596;9.960;2024-01-06T08:17:19;7.70;;;6.32;;
14342;SDS011;7255;53.596;9.960;2024-01-06T08:19:45;9.47;;;7.20;;
14342;SDS011;7255;53.596;9.960;2024-01-06T08:22:13;8.07;;;7.27;;
14342;SDS011;7255;53.596;9.960;2024-01-06T08:24:40;10.55;;;7.05;;
14342;SDS011;7255;53.596;9.960;2024-01-06T08:27:06;9.20;;;7.07;;
14342;SDS011;7255;53.596;9.960;2024-01-06T08:29:32;8.50;;;7.35;;
14342;SDS011;7255;53.596;9.960;2024-01-06T08:31:59;9.43;;;7.65;;
14342;SDS011;7255;53.596;9.960;2024-01-06T08:34:25;7.82;;;6.93;;
14342;SDS011;7255;53.596;9.960;2024-01-06T08:36:52;9.15;;;7.35;;
14342;SDS011;7255;53.596;9.960;2024-01-06T08:39:19;9.52;;;7.15;;
14342;SDS011;7255;53.596;9.960;2024-01-06T08:41:47;9.10;;;7.63;;
14342;SDS011;7255;53.596;9.960;2024-01-06T08:44:13;10.43;;;7.18;;
14342;SDS011;7255;53.596;9.960;2024-01-06T08:46:40;8.88;;;7.10;;
14342;SDS011;7255;53.596;9.960;2024-01-06T08:49:06;8.80;;;6.82;;
14342;SDS011;7255;53.596;9.960;2024-01-06T08:51:32;10.57;;;7.50;;
14342;SDS011;7255;53.596;9.960;2024-01-06T08:53:58;8.82;;;7.50;;
14342;SDS011;7255;53.596;9.960;2024-01-06T08:56:26;10.85;;;7.90;;
14342;SDS011;7255;53.596;9.960;2024-01-06T08:58:52;10.13;;;7.35;;
14342;SDS011;7255;53.596;9.960;2024-01-06T09:01:19;9.82;;;7.32;;
14342;SDS011;7255;53.596;9.960;2024-01-06T09:03:45;10.00;;;7.47;;
14342;SDS011;7255;53.596;9.960;2024-01-06T09:06:11;7.90;;;7.03;;
14342;SDS011;7255;53.596;9.960;2024-01-06T09:08:38;11.57;;;7.60;;
14342;SDS011;7255;53.596;9.960;2024-01-06T09:11:05;10.45;;;7.32;;
14342;SDS011;7255;53.596;9.960;2024-01-06T09:13:33;10.18;;;7.22;;
14342;SDS011;7255;53.596;9.960;2024-01-06T09:15:59;10.13;;;7.87;;
14342;SDS011;7255;53.596;9.960;2024-01-06T09:18:26;8.80;;;6.60;;
14342;SDS011;7255;53.596;9.960;2024-01-06T09:20:52;10.68;;;7.15;;
14342;SDS011;7255;53.596;9.960;2024-01-06T09:23:19;9.88;;;7.15;;
14342;SDS011;7255;53.596;9.960;2024-01-06T09:25:45;10.40;;;7.82;;
14342;SDS011;7255;53.596;9.960;2024-01-06T09:28:14;10.38;;;7.37;;
14342;SDS011;7255;53.596;9.960;2024-01-06T09:30:42;9.40;;;7.37;;
14342;SDS011;7255;53.596;9.960;2024-01-06T09:33:08;9.43;;;6.90;;
14342;SDS011;7255;53.596;9.960;2024-01-06T09:35:35;9.75;;;7.18;;
14342;SDS011;7255;53.596;9.960;2024-01-06T09:38:01;9.20;;;7.33;;
14342;SDS011;7255;53.596;9.960;2024-01-06T09:40:27;8.98;;;7.05;;
14342;SDS011;7255;53.596;9.960;2024-01-06T09:42:57;9.23;;;6.90;;
14342;SDS011;7255;53.596;9.960;2024-01-06T09:45:23;8.85;;;6.60;;
14342;SDS011;7255;53.596;9.960;2024-01-06T09:47:51;9.45;;;6.55;;
14342;SDS011;7255;53.596;9.960;2024-01-06T09:50:17;8.48;;;6.72;;
14342;SDS011;7255;53.596;9.960;2024-01-06T09:52:45;10.18;;;6.95;;
14342;SDS011;7255;53.596;9.960;2024-01-06T09:55:17;10.65;;;7.18;;
14342;SDS011;7255;53.596;9.960;2024-01-06T09:57:44;9.55;;;7.25;;
14342;SDS011;7255;53.596;9.960;2024-01-06T10:00:11;10.10;;;7.18;;
14342;SDS011;7255;53.596;9.960;2024-01-06T10:02:37;10.45;;;7.20;;
14342;SDS011;7255;53.596;9.960;2024-01-06T10:05:06;8.57;;;7.62;;
14342;SDS011;7255;53.596;9.960;2024-01-06T10:07:32;11.55;;;7.97;;
14342;SDS011;7255;53.596;9.960;2024-01-06T10:09:59;9.40;;;6.83;;
14342;SDS011;7255;53.596;9.960;2024-01-06T10:12:25;10.27;;;7.00;;
14342;SDS011;7255;53.596;9.960;2024-01-06T10:14:53;9.15;;;7.12;;
14342;SDS011;7255;53.596;9.960;2024-01-06T10:17:19;9.52;;;7.00;;
14342;SDS011;7255;53.596;9.960;2024-01-06T10:19:45;10.10;;;7.20;;
14342;SDS011;7255;53.596;9.960;2024-01-06T10:22:13;10.27;;;7.90;;
14342;SDS011;7255;53.596;9.960;2024-01-06T10:24:40;8.65;;;7.07;;
14342;SDS011;7255;53.596;9.960;2024-01-06T10:27:06;9.32;;;7.07;;
14342;SDS011;7255;53.596;9.960;2024-01-06T10:29:34;8.73;;;6.82;;
14342;SDS011;7255;53.596;9.960;2024-01-06T10:32:00;10.18;;;7.53;;
14342;SDS011;7255;53.596;9.960;2024-01-06T10:34:26;9.63;;;7.37;;
14342;SDS011;7255;53.596;9.960;2024-01-06T10:36:52;9.85;;;6.82;;
14342;SDS011;7255;53.596;9.960;2024-01-06T10:39:20;8.80;;;7.28;;
14342;SDS011;7255;53.596;9.960;2024-01-06T10:41:47;7.75;;;6.62;;
14342;SDS011;7255;53.596;9.960;2024-01-06T10:44:14;8.20;;;7.10;;
14342;SDS011;7255;53.596;9.960;2024-01-06T10:46:40;8.50;;;6.90;;
14342;SDS011;7255;53.596;9.960;2024-01-06T10:49:07;10.15;;;7.05;;
14342;SDS011;7255;53.596;9.960;2024-01-06T10:51:36;8.52;;;6.75;;
14342;SDS011;7255;53.596;9.960;2024-01-06T10:54:03;8.18;;;7.03;;
14342;SDS011;7255;53.596;9.960;2024-01-06T10:56:30;9.88;;;6.72;;
14342;SDS011;7255;53.596;9.960;2024-01-06T10:58:57;8.25;;;6.55;;
14342;SDS011;7255;53.596;9.960;2024-01-06T11:01:23;9.77;;;6.97;;
14342;SDS011;7255;53.596;9.960;2024-01-06T11:03:50;9.50;;;6.72;;
14342;SDS011;7255;53.596;9.960;2024-01-06T11:06:16;9.90;;;6.97;;
14342;SDS011;7255;53.596;9.960;2024-01-06T11:08:44;9.43;;;6.60;;
14342;SDS011;7255;53.596;9.960;2024-01-06T11:11:14;7.40;;;6.28;;
14342;SDS011;7255;53.596;9.960;2024-01-06T11:13:42;9.23;;;6.77;;
14342;SDS011;7255;53.596;9.960;2024-01-06T11:16:10;7.65;;;5.93;;
14342;SDS011;7255;53.596;9.960;2024-01-06T11:18:36;7.43;;;6.07;;
14342;SDS011;7255;53.596;9.960;2024-01-06T11:26:35;8.40;;;6.20;;
14342;SDS011;7255;53.596;9.960;2024-01-06T11:29:05;6.82;;;5.95;;
14342;SDS011;7255;53.596;9.960;2024-01-06T11:31:33;8.43;;;6.33;;
14342;SDS011;7255;53.596;9.960;2024-01-06T11:34:11;8.30;;;5.78;;
14342;SDS011;7255;53.596;9.960;2024-01-06T11:36:38;9.50;;;6.60;;
14342;SDS011;7255;53.596;9.960;2024-01-06T11:39:04;8.10;;;6.20;;
14342;SDS011;7255;53.596;9.960;2024-01-06T11:41:49;8.10;;;5.87;;
14342;SDS011;7255;53.596;9.960;2024-01-06T11:44:19;7.03;;;5.90;;
14342;SDS011;7255;53.596;9.960;2024-01-06T11:46:47;8.40;;;6.15;;
14342;SDS011;7255;53.596;9.960;2024-01-06T11:49:14;8.32;;;6.30;;
14342;SDS011;7255;53.596;9.960;2024-01-06T11:51:41;7.47;;;6.03;;
14342;SDS011;7255;53.596;9.960;2024-01-06T11:54:07;9.38;;;6.22;;
14342;SDS011;7255;53.596;9.960;2024-01-06T11:56:33;7.57;;;5.82;;
14342;SDS011;7255;53.596;9.960;2024-01-06T11:58:59;7.40;;;5.47;;
14342;SDS011;7255;53.596;9.960;2024-01-06T12:01:27;6.60;;;5.60;;
14342;SDS011;7255;53.596;9.960;2024-01-06T12:03:53;7.40;;;5.45;;
14342;SDS011;7255;53.596;9.960;2024-01-06T12:06:20;8.00;;;5.70;;
14342;SDS011;7255;53.596;9.960;2024-01-06T12:08:47;6.68;;;5.28;;
14342;SDS011;7255;53.596;9.960;2024-01-06T12:11:13;7.85;;;5.53;;
14342;SDS011;7255;53.596;9.960;2024-01-06T12:13:43;6.40;;;5.03;;
14342;SDS011;7255;53.596;9.960;2024-01-06T12:16:10;6.03;;;4.90;;
14342;SDS011;7255;53.596;9.960;2024-01-06T12:18:37;6.35;;;5.12;;
14342;SDS011;7255;53.596;9.960;2024-01-06T12:21:03;6.45;;;5.20;;
14342;SDS011;7255;53.596;9.960;2024-01-06T12:23:30;7.93;;;5.10;;
14342;SDS011;7255;53.596;9.960;2024-01-06T12:25:56;6.80;;;5.03;;
14342;SDS011;7255;53.596;9.960;2024-01-06T12:28:22;6.27;;;5.10;;
14342;SDS011;7255;53.596;9.960;2024-01-06T12:30:49;6.28;;;5.15;;
14342;SDS011;7255;53.596;9.960;2024-01-06T12:33:16;7.32;;;5.43;;
14342;SDS011;7255;53.596;9.960;2024-01-06T12:35:43;6.18;;;4.90;;
14342;SDS011;7255;53.596;9.960;2024-01-06T12:38:10;7.93;;;4.95;;
14342;SDS011;7255;53.596;9.960;2024-01-06T12:40:36;5.85;;;4.87;;
14342;SDS011;7255;53.596;9.960;2024-01-06T12:43:03;6.28;;;4.75;;
14342;SDS011;7255;53.596;9.960;2024-01-06T12:45:29;7.03;;;5.32;;
14342;SDS011;7255;53.596;9.960;2024-01-06T12:47:55;5.00;;;4.43;;
14342;SDS011;7255;53.596;9.960;2024-01-06T12:50:21;5.30;;;4.60;;
14342;SDS011;7255;53.596;9.960;2024-01-06T12:52:49;5.95;;;5.10;;
14342;SDS011;7255;53.596;9.960;2024-01-06T12:55:15;5.30;;;4.80;;
14342;SDS011;7255;53.596;9.960;2024-01-06T12:57:42;6.53;;;4.70;;
14342;SDS011;7255;53.596;9.960;2024-01-06T13:00:08;6.00;;;4.37;;
14342;SDS011;7255;53.596;9.960;2024-01-06T13:02:37;6.22;;;4.53;;
14342;SDS011;7255;53.596;9.960;2024-01-06T13:05:03;5.65;;;4.22;;
14342;SDS011;7255;53.596;9.960;2024-01-06T13:07:30;5.00;;;4.43;;
14342;SDS011;7255;53.596;9.960;2024-01-06T13:09:58;4.40;;;4.00;;
14342;SDS011;7255;53.596;9.960;2024-01-06T13:12:24;4.80;;;4.10;;
14342;SDS011;7255;53.596;9.960;2024-01-06T13:14:52;6.75;;;5.60;;
14342;SDS011;7255;53.596;9.960;2024-01-06T13:17:18;10.90;;;9.05;;
14342;SDS011;7255;53.596;9.960;2024-01-06T13:19:44;5.03;;;4.50;;
14342;SDS011;7255;53.596;9.960;2024-01-06T13:22:10;7.22;;;5.53;;
14342;SDS011;7255;53.596;9.960;2024-01-06T13:24:38;5.62;;;4.87;;
14342;SDS011;7255;53.596;9.960;2024-01-06T13:27:06;4.47;;;4.07;;
14342;SDS011;7255;53.596;9.960;2024-01-06T13:29:34;5.43;;;4.90;;
14342;SDS011;7255;53.596;9.960;2024-01-06T13:32:00;5.55;;;4.30;;
14342;SDS011;7255;53.596;9.960;2024-01-06T13:34:26;4.97;;;4.47;;
14342;SDS011;7255;53.596;9.960;2024-01-06T13:36:54;4.93;;;4.45;;
14342;SDS011;7255;53.596;9.960;2024-01-06T13:39:24;4.30;;;3.90;;
14342;SDS011;7255;53.596;9.960;2024-01-06T13:41:50;6.60;;;4.68;;
14342;SDS011;7255;53.596;9.960;2024-01-06T13:44:18;6.00;;;4.40;;
14342;SDS011;7255;53.596;9.960;2024-01-06T13:46:45;5.70;;;4.43;;
14342;SDS011;7255;53.596;9.960;2024-01-06T13:49:12;5.40;;;4.45;;
14342;SDS011;7255;53.596;9.960;2024-01-06T13:51:38;4.40;;;4.00;;
14342;SDS011;7255;53.596;9.960;2024-01-06T13:54:05;5.10;;;4.47;;
14342;SDS011;7255;53.596;9.960;2024-01-06T13:56:31;4.93;;;4.10;;
14342;SDS011;7255;53.596;9.960;2024-01-06T13:58:57;6.43;;;4.40;;
14342;SDS011;7255;53.596;9.960;2024-01-06T14:01:25;5.30;;;4.80;;
14342;SDS011;7255;53.596;9.960;2024-01-06T14:03:51;5.25;;;4.30;;
14342;SDS011;7255;53.596;9.960;2024-01-06T14:06:22;5.35;;;4.18;;
14342;SDS011;7255;53.596;9.960;2024-01-06T14:08:49;4.68;;;4.12;;
14342;SDS011;7255;53.596;9.960;2024-01-06T14:11:17;4.65;;;4.18;;
14342;SDS011;7255;53.596;9.960;2024-01-06T14:13:43;4.90;;;4.12;;
14342;SDS011;7255;53.596;9.960;2024-01-06T14:16:13;5.20;;;4.45;;
14342;SDS011;7255;53.596;9.960;2024-01-06T14:18:41;5.30;;;4.80;;
14342;SDS011;7255;53.596;9.960;2024-01-06T14:21:08;4.50;;;4.10;;
14342;SDS011;7255;53.596;9.960;2024-01-06T14:23:35;4.82;;;4.35;;
14342;SDS011;7255;53.596;9.960;2024-01-06T14:26:01;6.00;;;4.50;;
14342;SDS011;7255;53.596;9.960;2024-01-06T14:28:28;5.75;;;4.53;;
14342;SDS011;7255;53.596;9.960;2024-01-06T14:30:55;6.63;;;4.50;;
14342;SDS011;7255;53.596;9.960;2024-01-06T14:33:21;5.22;;;4.70;;
14342;SDS011;7255;53.596;9.960;2024-01-06T14:35:49;4.85;;;4.12;;
14342;SDS011;7255;53.596;9.960;2024-01-06T14:38:15;5.00;;;4.32;;
14342;SDS011;7255;53.596;9.960;2024-01-06T14:40:41;5.00;;;4.57;;
14342;SDS011;7255;53.596;9.960;2024-01-06T14:43:07;5.10;;;4.60;;
14342;SDS011;7255;53.596;9.960;2024-01-06T14:45:35;7.73;;;4.80;;
14342;SDS011;7255;53.596;9.960;2024-01-06T14:48:01;5.20;;;4.70;;
14342;SDS011;7255;53.596;9.960;2024-01-06T14:50:28;5.82;;;5.07;;
14342;SDS011;7255;53.596;9.960;2024-01-06T14:52:56;5.50;;;4.90;;
14342;SDS011;7255;53.596;9.960;2024-01-06T14:55:22;5.37;;;4.87;;
14342;SDS011;7255;53.596;9.960;2024-01-06T14:57:48;6.15;;;5.35;;
14342;SDS011;7255;53.596;9.960;2024-01-06T15:00:14;5.40;;;4.77;;
14342;SDS011;7255;53.596;9.960;2024-01-06T15:02:41;5.40;;;4.55;;